sensor_id;sensor_type;location;lat;lon;timestamp;P1;durP1;ratioP1;P2;durP2;ratioP2
16173;SDS011;14031;50.158;8.626;2022-11-20T00:00:39;13.30;;;10.77;;
16173;SDS011;14031;50.158;8.626;2022-11-20T00:03:06;18.80;;;11.47;;
16173;SDS011;14031;50.158;8.626;2022-11-20T00:05:33;15.53;;;11.13;;
16173;SDS011;14031;50.158;8.626;2022-11-20T00:08:00;13.73;;;10.70;;
16173;SDS011;14031;50.158;8.626;2022-11-20T00:10:26;16.47;;;10.67;;
16173;SDS011;14031;50.158;8.626;2022-11-20T00:12:53;15.63;;;11.30;;
16173;SDS011;14031;50.158;8.626;2022-11-20T00:15:20;12.97;;;10.37;;
16173;SDS011;14031;50.158;8.626;2022-11-20T00:17:48;13.73;;;10.30;;
16173;SDS011;14031;50.158;8.626;2022-11-20T00:20:15;12.77;;;10.33;;
16173;SDS011;14031;50.158;8.626;2022-11-20T00:22:42;13.17;;;10.37;;
16173;SDS011;14031;50.158;8.626;2022-11-20T00:25:08;18.00;;;10.77;;
16173;SDS011;14031;50.158;8.626;2022-11-20T00:27:36;14.90;;;10.70;;
16173;SDS011;14031;50.158;8.626;2022-11-20T00:30:03;16.33;;;11.10;;
16173;SDS011;14031;50.158;8.626;2022-11-20T00:32:30;17.37;;;10.67;;
16173;SDS011;14031;50.158;8.626;2022-11-20T00:34:59;13.53;;;9.97;;
16173;SDS011;14031;50.158;8.626;2022-11-20T00:37:26;13.67;;;10.13;;
16173;SDS011;14031;50.158;8.626;2022-11-20T00:39:53;14.37;;;10.97;;
16173;SDS011;14031;50.158;8.626;2022-11-20T00:42:19;15.10;;;10.80;;
16173;SDS011;14031;50.158;8.626;2022-11-20T00:44:46;18.67;;;11.43;;
16173;SDS011;14031;50.158;8.626;2022-11-20T00:47:13;17.37;;;10.87;;
16173;SDS011;14031;50.158;8.626;2022-11-20T00:49:39;13.87;;;11.10;;
16173;SDS011;14031;50.158;8.626;2022-11-20T00:52:08;15.33;;;10.83;;
16173;SDS011;14031;50.158;8.626;2022-11-20T00:54:34;18.17;;;11.53;;
16173;SDS011;14031;50.158;8.626;2022-11-20T00:57:01;17.43;;;10.83;;
16173;SDS011;14031;50.158;8.626;2022-11-20T00:59:28;15.67;;;10.73;;
16173;SDS011;14031;50.158;8.626;2022-11-20T01:01:54;14.37;;;10.57;;
16173;SDS011;14031;50.158;8.626;2022-11-20T01:04:21;15.23;;;10.83;;
16173;SDS011;14031;50.158;8.626;2022-11-20T01:06:48;16.50;;;10.77;;
16173;SDS011;14031;50.158;8.626;2022-11-20T01:09:18;16.33;;;10.93;;
16173;SDS011;14031;50.158;8.626;2022-11-20T01:11:45;14.37;;;10.57;;
16173;SDS011;14031;50.158;8.626;2022-11-20T01:14:12;15.50;;;11.27;;
16173;SDS011;14031;50.158;8.626;2022-11-20T01:16:41;15.63;;;11.57;;
16173;SDS011;14031;50.158;8.626;2022-11-20T01:19:11;16.63;;;11.13;;
16173;SDS011;14031;50.158;8.626;2022-11-20T01:21:39;16.77;;;11.20;;
16173;SDS011;14031;50.158;8.626;2022-11-20T01:24:10;17.53;;;12.10;;
16173;SDS011;14031;50.158;8.626;2022-11-20T01:26:40;16.00;;;11.43;;
16173;SDS011;14031;50.158;8.626;2022-11-20T01:29:08;16.20;;;10.80;;
16173;SDS011;14031;50.158;8.626;2022-11-20T01:31:39;18.97;;;11.57;;
16173;SDS011;14031;50.158;8.626;2022-11-20T01:34:07;15.33;;;10.97;;
16173;SDS011;14031;50.158;8.626;2022-11-20T01:36:37;16.50;;;11.37;;
16173;SDS011;14031;50.158;8.626;2022-11-20T01:39:05;13.70;;;10.63;;
16173;SDS011;14031;50.158;8.626;2022-11-20T01:41:35;16.27;;;11.37;;
16173;SDS011;14031;50.158;8.626;2022-11-20T01:44:22;16.47;;;11.43;;
16173;SDS011;14031;50.158;8.626;2022-11-20T01:47:09;18.37;;;11.90;;
16173;SDS011;14031;50.158;8.626;2022-11-20T01:49:40;17.80;;;11.67;;
16173;SDS011;14031;50.158;8.626;2022-11-20T01:52:13;17.53;;;11.77;;
16173;SDS011;14031;50.158;8.626;2022-11-20T01:54:45;14.23;;;11.03;;
16173;SDS011;14031;50.158;8.626;2022-11-20T01:57:16;17.80;;;11.20;;
16173;SDS011;14031;50.158;8.626;2022-11-20T01:59:47;15.60;;;11.07;;
16173;SDS011;14031;50.158;8.626;2022-11-20T02:02:19;16.97;;;11.10;;
16173;SDS011;14031;50.158;8.626;2022-11-20T02:04:46;17.60;;;12.20;;
16173;SDS011;14031;50.158;8.626;2022-11-20T02:07:14;15.57;;;11.37;;
16173;SDS011;14031;50.158;8.626;2022-11-20T02:09:41;15.93;;;11.83;;
16173;SDS011;14031;50.158;8.626;2022-11-20T02:12:08;15.60;;;11.57;;
16173;SDS011;14031;50.158;8.626;2022-11-20T02:14:57;17.37;;;12.20;;
16173;SDS011;14031;50.158;8.626;2022-11-20T02:17:23;17.70;;;11.40;;
16173;SDS011;14031;50.158;8.626;2022-11-20T02:19:50;15.50;;;10.73;;
16173;SDS011;14031;50.158;8.626;2022-11-20T02:22:18;17.13;;;10.93;;
16173;SDS011;14031;50.158;8.626;2022-11-20T02:24:53;17.30;;;11.67;;
16173;SDS011;14031;50.158;8.626;2022-11-20T02:27:19;22.20;;;11.63;;
16173;SDS011;14031;50.158;8.626;2022-11-20T02:29:48;19.57;;;12.27;;
16173;SDS011;14031;50.158;8.626;2022-11-20T02:32:18;18.20;;;12.03;;
16173;SDS011;14031;50.158;8.626;2022-11-20T02:34:45;16.90;;;12.00;;
16173;SDS011;14031;50.158;8.626;2022-11-20T02:37:12;17.83;;;11.63;;
16173;SDS011;14031;50.158;8.626;2022-11-20T02:39:39;18.13;;;12.47;;
16173;SDS011;14031;50.158;8.626;2022-11-20T02:42:08;16.07;;;12.17;;
16173;SDS011;14031;50.158;8.626;2022-11-20T02:44:35;17.97;;;12.30;;
16173;SDS011;14031;50.158;8.626;2022-11-20T02:47:02;14.53;;;11.67;;
16173;SDS011;14031;50.158;8.626;2022-11-20T02:49:29;20.37;;;11.83;;
16173;SDS011;14031;50.158;8.626;2022-11-20T02:51:56;17.93;;;12.30;;
16173;SDS011;14031;50.158;8.626;2022-11-20T02:54:23;16.97;;;11.73;;
16173;SDS011;14031;50.158;8.626;2022-11-20T02:56:49;18.27;;;12.23;;
16173;SDS011;14031;50.158;8.626;2022-11-20T02:59:17;17.53;;;11.47;;
16173;SDS011;14031;50.158;8.626;2022-11-20T03:01:44;18.83;;;12.43;;
16173;SDS011;14031;50.158;8.626;2022-11-20T03:04:11;19.50;;;11.63;;
16173;SDS011;14031;50.158;8.626;2022-11-20T03:06:38;16.60;;;11.43;;
16173;SDS011;14031;50.158;8.626;2022-11-20T03:09:05;15.87;;;11.93;;
16173;SDS011;14031;50.158;8.626;2022-11-20T03:11:31;15.83;;;11.73;;
16173;SDS011;14031;50.158;8.626;2022-11-20T03:14:01;15.60;;;11.27;;
16173;SDS011;14031;50.158;8.626;2022-11-20T03:16:30;18.20;;;12.13;;
16173;SDS011;14031;50.158;8.626;2022-11-20T03:18:57;16.70;;;11.47;;
16173;SDS011;14031;50.158;8.626;2022-11-20T03:21:23;13.87;;;11.50;;
16173;SDS011;14031;50.158;8.626;2022-11-20T03:23:50;20.17;;;12.17;;
16173;SDS011;14031;50.158;8.626;2022-11-20T03:26:19;17.87;;;12.03;;
16173;SDS011;14031;50.158;8.626;2022-11-20T03:28:47;17.00;;;11.93;;
16173;SDS011;14031;50.158;8.626;2022-11-20T03:31:16;18.37;;;12.20;;
16173;SDS011;14031;50.158;8.626;2022-11-20T03:33:45;21.33;;;12.77;;
16173;SDS011;14031;50.158;8.626;2022-11-20T03:36:13;17.97;;;12.30;;
16173;SDS011;14031;50.158;8.626;2022-11-20T03:38:43;20.50;;;13.27;;
16173;SDS011;14031;50.158;8.626;2022-11-20T03:41:11;19.33;;;13.30;;
16173;SDS011;14031;50.158;8.626;2022-11-20T03:43:39;20.40;;;12.83;;
16173;SDS011;14031;50.158;8.626;2022-11-20T03:46:07;18.13;;;12.77;;
16173;SDS011;14031;50.158;8.626;2022-11-20T03:48:33;19.53;;;12.87;;
16173;SDS011;14031;50.158;8.626;2022-11-20T03:51:08;18.37;;;12.77;;
16173;SDS011;14031;50.158;8.626;2022-11-20T03:53:36;16.93;;;11.97;;
16173;SDS011;14031;50.158;8.626;2022-11-20T03:56:03;17.20;;;12.27;;
16173;SDS011;14031;50.158;8.626;2022-11-20T03:58:32;20.90;;;11.90;;
16173;SDS011;14031;50.158;8.626;2022-11-20T04:01:03;17.30;;;12.10;;
16173;SDS011;14031;50.158;8.626;2022-11-20T04:03:31;16.17;;;10.93;;
16173;SDS011;14031;50.158;8.626;2022-11-20T04:06:01;15.70;;;10.67;;
16173;SDS011;14031;50.158;8.626;2022-11-20T04:08:30;17.43;;;11.70;;
16173;SDS011;14031;50.158;8.626;2022-11-20T04:11:07;13.73;;;10.60;;
16173;SDS011;14031;50.158;8.626;2022-11-20T04:13:34;16.40;;;10.77;;
16173;SDS011;14031;50.158;8.626;2022-11-20T04:16:01;17.10;;;11.23;;
16173;SDS011;14031;50.158;8.626;2022-11-20T04:18:28;17.50;;;11.23;;
16173;SDS011;14031;50.158;8.626;2022-11-20T04:20:56;15.40;;;11.60;;
16173;SDS011;14031;50.158;8.626;2022-11-20T04:23:23;14.77;;;11.10;;
16173;SDS011;14031;50.158;8.626;2022-11-20T04:25:51;14.77;;;10.83;;
16173;SDS011;14031;50.158;8.626;2022-11-20T04:28:18;16.90;;;11.50;;
16173;SDS011;14031;50.158;8.626;2022-11-20T04:30:45;15.83;;;10.90;;
16173;SDS011;14031;50.158;8.626;2022-11-20T04:33:12;17.23;;;11.07;;
16173;SDS011;14031;50.158;8.626;2022-11-20T04:35:39;13.17;;;10.33;;
16173;SDS011;14031;50.158;8.626;2022-11-20T04:38:07;16.37;;;11.00;;
16173;SDS011;14031;50.158;8.626;2022-11-20T04:40:36;19.47;;;10.83;;
16173;SDS011;14031;50.158;8.626;2022-11-20T04:43:04;16.43;;;11.17;;
16173;SDS011;14031;50.158;8.626;2022-11-20T04:45:31;18.47;;;11.30;;
16173;SDS011;14031;50.158;8.626;2022-11-20T04:47:57;15.47;;;10.90;;
16173;SDS011;14031;50.158;8.626;2022-11-20T04:50:25;15.47;;;10.33;;
16173;SDS011;14031;50.158;8.626;2022-11-20T04:52:52;16.57;;;11.27;;
16173;SDS011;14031;50.158;8.626;2022-11-20T04:55:19;15.33;;;10.93;;
16173;SDS011;14031;50.158;8.626;2022-11-20T04:57:49;17.20;;;11.53;;
16173;SDS011;14031;50.158;8.626;2022-11-20T05:00:17;18.63;;;11.63;;
16173;SDS011;14031;50.158;8.626;2022-11-20T05:02:44;14.43;;;10.83;;
16173;SDS011;14031;50.158;8.626;2022-11-20T05:05:15;18.03;;;11.33;;
16173;SDS011;14031;50.158;8.626;2022-11-20T05:07:41;15.47;;;11.90;;
16173;SDS011;14031;50.158;8.626;2022-11-20T05:10:08;16.30;;;11.53;;
16173;SDS011;14031;50.158;8.626;2022-11-20T05:12:35;17.70;;;11.27;;
16173;SDS011;14031;50.158;8.626;2022-11-20T05:15:02;21.53;;;11.87;;
16173;SDS011;14031;50.158;8.626;2022-11-20T05:17:30;17.60;;;11.20;;
16173;SDS011;14031;50.158;8.626;2022-11-20T05:19:57;18.10;;;12.00;;
16173;SDS011;14031;50.158;8.626;2022-11-20T05:22:24;18.40;;;11.70;;
16173;SDS011;14031;50.158;8.626;2022-11-20T05:24:51;17.07;;;11.83;;
16173;SDS011;14031;50.158;8.626;2022-11-20T05:27:17;17.10;;;10.90;;
16173;SDS011;14031;50.158;8.626;2022-11-20T05:29:44;16.20;;;10.90;;
16173;SDS011;14031;50.158;8.626;2022-11-20T05:32:11;14.37;;;10.47;;
16173;SDS011;14031;50.158;8.626;2022-11-20T05:34:39;18.63;;;11.37;;
16173;SDS011;14031;50.158;8.626;2022-11-20T05:37:06;19.50;;;11.90;;
16173;SDS011;14031;50.158;8.626;2022-11-20T05:39:32;17.50;;;11.40;;
16173;SDS011;14031;50.158;8.626;2022-11-20T05:41:59;19.37;;;11.60;;
16173;SDS011;14031;50.158;8.626;2022-11-20T05:44:44;20.13;;;12.70;;
16173;SDS011;14031;50.158;8.626;2022-11-20T05:47:10;20.60;;;12.10;;
16173;SDS011;14031;50.158;8.626;2022-11-20T05:49:37;17.93;;;11.70;;
16173;SDS011;14031;50.158;8.626;2022-11-20T05:52:05;19.73;;;12.30;;
16173;SDS011;14031;50.158;8.626;2022-11-20T05:54:32;17.07;;;11.57;;
16173;SDS011;14031;50.158;8.626;2022-11-20T05:57:04;21.03;;;12.47;;
16173;SDS011;14031;50.158;8.626;2022-11-20T05:59:45;20.37;;;12.30;;
16173;SDS011;14031;50.158;8.626;2022-11-20T06:02:11;19.27;;;12.27;;
16173;SDS011;14031;50.158;8.626;2022-11-20T06:04:38;17.87;;;11.87;;
16173;SDS011;14031;50.158;8.626;2022-11-20T06:07:07;20.70;;;12.43;;
16173;SDS011;14031;50.158;8.626;2022-11-20T06:09:33;21.57;;;12.83;;
16173;SDS011;14031;50.158;8.626;2022-11-20T06:12:07;23.60;;;13.40;;
16173;SDS011;14031;50.158;8.626;2022-11-20T06:14:34;18.63;;;12.00;;
16173;SDS011;14031;50.158;8.626;2022-11-20T06:17:01;21.47;;;12.23;;
16173;SDS011;14031;50.158;8.626;2022-11-20T06:19:30;18.43;;;12.07;;
16173;SDS011;14031;50.158;8.626;2022-11-20T06:21:58;17.90;;;12.57;;
16173;SDS011;14031;50.158;8.626;2022-11-20T06:24:26;19.50;;;12.90;;
16173;SDS011;14031;50.158;8.626;2022-11-20T06:26:53;22.10;;;12.27;;
16173;SDS011;14031;50.158;8.626;2022-11-20T06:29:19;21.43;;;12.87;;
16173;SDS011;14031;50.158;8.626;2022-11-20T06:31:46;18.67;;;12.17;;
16173;SDS011;14031;50.158;8.626;2022-11-20T06:34:13;26.50;;;13.70;;
16173;SDS011;14031;50.158;8.626;2022-11-20T06:36:39;20.67;;;13.17;;
16173;SDS011;14031;50.158;8.626;2022-11-20T06:39:06;18.97;;;12.70;;
16173;SDS011;14031;50.158;8.626;2022-11-20T06:41:34;21.97;;;13.00;;
16173;SDS011;14031;50.158;8.626;2022-11-20T06:44:03;21.93;;;13.77;;
16173;SDS011;14031;50.158;8.626;2022-11-20T06:46:30;20.17;;;12.83;;
16173;SDS011;14031;50.158;8.626;2022-11-20T06:48:57;21.60;;;13.50;;
16173;SDS011;14031;50.158;8.626;2022-11-20T06:51:24;25.83;;;14.30;;
16173;SDS011;14031;50.158;8.626;2022-11-20T06:53:50;20.23;;;13.23;;
16173;SDS011;14031;50.158;8.626;2022-11-20T06:56:17;22.03;;;13.23;;
16173;SDS011;14031;50.158;8.626;2022-11-20T06:58:45;20.10;;;12.77;;
16173;SDS011;14031;50.158;8.626;2022-11-20T07:01:13;24.70;;;13.97;;
16173;SDS011;14031;50.158;8.626;2022-11-20T07:03:41;25.63;;;14.10;;
16173;SDS011;14031;50.158;8.626;2022-11-20T07:06:08;21.43;;;13.83;;
16173;SDS011;14031;50.158;8.626;2022-11-20T07:08:35;25.90;;;14.83;;
16173;SDS011;14031;50.158;8.626;2022-11-20T07:11:02;22.57;;;13.13;;
16173;SDS011;14031;50.158;8.626;2022-11-20T07:13:30;24.83;;;14.60;;
16173;SDS011;14031;50.158;8.626;2022-11-20T07:16:00;28.53;;;15.07;;
16173;SDS011;14031;50.158;8.626;2022-11-20T07:18:28;24.67;;;14.80;;
16173;SDS011;14031;50.158;8.626;2022-11-20T07:20:55;28.10;;;15.80;;
16173;SDS011;14031;50.158;8.626;2022-11-20T07:23:22;28.50;;;14.47;;
16173;SDS011;14031;50.158;8.626;2022-11-20T07:25:48;29.27;;;16.17;;
16173;SDS011;14031;50.158;8.626;2022-11-20T07:28:15;29.57;;;15.23;;
16173;SDS011;14031;50.158;8.626;2022-11-20T07:30:43;28.37;;;14.90;;
16173;SDS011;14031;50.158;8.626;2022-11-20T07:33:17;30.47;;;15.13;;
16173;SDS011;14031;50.158;8.626;2022-11-20T07:35:45;27.53;;;15.00;;
16173;SDS011;14031;50.158;8.626;2022-11-20T07:38:11;36.67;;;15.73;;
16173;SDS011;14031;50.158;8.626;2022-11-20T07:40:38;32.83;;;15.40;;
16173;SDS011;14031;50.158;8.626;2022-11-20T07:43:05;29.63;;;14.70;;
16173;SDS011;14031;50.158;8.626;2022-11-20T07:45:32;31.63;;;16.47;;
16173;SDS011;14031;50.158;8.626;2022-11-20T07:47:59;29.37;;;15.77;;
16173;SDS011;14031;50.158;8.626;2022-11-20T07:50:27;34.57;;;16.53;;
16173;SDS011;14031;50.158;8.626;2022-11-20T07:52:59;34.03;;;16.87;;
16173;SDS011;14031;50.158;8.626;2022-11-20T07:55:27;35.57;;;17.17;;
16173;SDS011;14031;50.158;8.626;2022-11-20T07:57:54;35.33;;;16.40;;
16173;SDS011;14031;50.158;8.626;2022-11-20T08:00:21;32.17;;;16.37;;
16173;SDS011;14031;50.158;8.626;2022-11-20T08:02:49;34.63;;;16.37;;
16173;SDS011;14031;50.158;8.626;2022-11-20T08:05:16;33.53;;;16.80;;
16173;SDS011;14031;50.158;8.626;2022-11-20T08:07:44;32.33;;;15.63;;
16173;SDS011;14031;50.158;8.626;2022-11-20T08:10:11;32.10;;;16.10;;
16173;SDS011;14031;50.158;8.626;2022-11-20T08:12:43;33.67;;;16.67;;
16173;SDS011;14031;50.158;8.626;2022-11-20T08:15:28;32.47;;;15.93;;
16173;SDS011;14031;50.158;8.626;2022-11-20T08:17:58;32.93;;;16.20;;
16173;SDS011;14031;50.158;8.626;2022-11-20T08:20:26;34.97;;;16.27;;
16173;SDS011;14031;50.158;8.626;2022-11-20T08:22:58;36.40;;;17.13;;
16173;SDS011;14031;50.158;8.626;2022-11-20T08:25:26;39.73;;;19.90;;
16173;SDS011;14031;50.158;8.626;2022-11-20T08:27:53;37.90;;;17.90;;
16173;SDS011;14031;50.158;8.626;2022-11-20T08:30:19;31.50;;;15.97;;
16173;SDS011;14031;50.158;8.626;2022-11-20T08:32:46;35.23;;;17.17;;
16173;SDS011;14031;50.158;8.626;2022-11-20T08:35:13;32.40;;;16.63;;
16173;SDS011;14031;50.158;8.626;2022-11-20T08:37:40;30.17;;;15.80;;
16173;SDS011;14031;50.158;8.626;2022-11-20T08:40:10;29.40;;;15.73;;
16173;SDS011;14031;50.158;8.626;2022-11-20T08:42:45;32.20;;;16.30;;
16173;SDS011;14031;50.158;8.626;2022-11-20T08:45:12;28.10;;;15.67;;
16173;SDS011;14031;50.158;8.626;2022-11-20T08:47:39;32.93;;;16.37;;
16173;SDS011;14031;50.158;8.626;2022-11-20T08:50:06;30.60;;;16.10;;
16173;SDS011;14031;50.158;8.626;2022-11-20T08:52:33;34.23;;;17.03;;
16173;SDS011;14031;50.158;8.626;2022-11-20T08:55:00;34.20;;;17.07;;
16173;SDS011;14031;50.158;8.626;2022-11-20T08:57:29;34.53;;;15.60;;
16173;SDS011;14031;50.158;8.626;2022-11-20T08:59:57;35.13;;;16.93;;
16173;SDS011;14031;50.158;8.626;2022-11-20T09:02:24;28.73;;;15.87;;
16173;SDS011;14031;50.158;8.626;2022-11-20T09:04:51;29.70;;;16.83;;
16173;SDS011;14031;50.158;8.626;2022-11-20T09:07:18;33.03;;;15.87;;
16173;SDS011;14031;50.158;8.626;2022-11-20T09:09:45;31.83;;;16.33;;
16173;SDS011;14031;50.158;8.626;2022-11-20T09:12:12;33.10;;;16.63;;
16173;SDS011;14031;50.158;8.626;2022-11-20T09:14:41;34.63;;;16.33;;
16173;SDS011;14031;50.158;8.626;2022-11-20T09:17:09;31.57;;;16.70;;
16173;SDS011;14031;50.158;8.626;2022-11-20T09:19:38;33.43;;;17.17;;
16173;SDS011;14031;50.158;8.626;2022-11-20T09:22:05;32.20;;;17.17;;
16173;SDS011;14031;50.158;8.626;2022-11-20T09:24:32;35.67;;;17.70;;
16173;SDS011;14031;50.158;8.626;2022-11-20T09:27:01;34.40;;;17.63;;
16173;SDS011;14031;50.158;8.626;2022-11-20T09:29:29;32.40;;;17.07;;
16173;SDS011;14031;50.158;8.626;2022-11-20T09:31:57;35.23;;;17.43;;
16173;SDS011;14031;50.158;8.626;2022-11-20T09:34:23;29.80;;;16.37;;
16173;SDS011;14031;50.158;8.626;2022-11-20T09:36:50;33.27;;;16.50;;
16173;SDS011;14031;50.158;8.626;2022-11-20T09:39:17;28.00;;;16.40;;
16173;SDS011;14031;50.158;8.626;2022-11-20T09:41:48;28.30;;;16.57;;
16173;SDS011;14031;50.158;8.626;2022-11-20T09:44:30;36.00;;;16.80;;
16173;SDS011;14031;50.158;8.626;2022-11-20T09:47:24;33.33;;;15.37;;
16173;SDS011;14031;50.158;8.626;2022-11-20T09:50:07;34.23;;;16.70;;
16173;SDS011;14031;50.158;8.626;2022-11-20T09:52:47;31.67;;;16.37;;
16173;SDS011;14031;50.158;8.626;2022-11-20T09:55:24;40.87;;;17.37;;
16173;SDS011;14031;50.158;8.626;2022-11-20T09:57:51;28.43;;;15.63;;
16173;SDS011;14031;50.158;8.626;2022-11-20T10:00:18;26.73;;;15.10;;
16173;SDS011;14031;50.158;8.626;2022-11-20T10:02:48;26.77;;;14.70;;
16173;SDS011;14031;50.158;8.626;2022-11-20T10:05:21;26.67;;;14.07;;
16173;SDS011;14031;50.158;8.626;2022-11-20T10:07:52;24.63;;;14.20;;
16173;SDS011;14031;50.158;8.626;2022-11-20T10:10:28;26.13;;;14.00;;
16173;SDS011;14031;50.158;8.626;2022-11-20T10:13:04;28.07;;;14.90;;
16173;SDS011;14031;50.158;8.626;2022-11-20T10:15:42;26.60;;;14.63;;
16173;SDS011;14031;50.158;8.626;2022-11-20T10:18:27;24.90;;;14.20;;
16173;SDS011;14031;50.158;8.626;2022-11-20T10:21:08;21.83;;;13.87;;
16173;SDS011;14031;50.158;8.626;2022-11-20T10:23:45;24.63;;;14.90;;
16173;SDS011;14031;50.158;8.626;2022-11-20T10:26:50;27.37;;;14.33;;
16173;SDS011;14031;50.158;8.626;2022-11-20T10:29:29;24.10;;;14.53;;
16173;SDS011;14031;50.158;8.626;2022-11-20T10:32:00;24.07;;;13.47;;
16173;SDS011;14031;50.158;8.626;2022-11-20T10:34:31;22.80;;;12.60;;
16173;SDS011;14031;50.158;8.626;2022-11-20T10:37:05;24.33;;;14.30;;
16173;SDS011;14031;50.158;8.626;2022-11-20T10:39:39;22.50;;;14.30;;
16173;SDS011;14031;50.158;8.626;2022-11-20T10:42:11;31.13;;;14.67;;
16173;SDS011;14031;50.158;8.626;2022-11-20T10:44:42;26.07;;;13.73;;
16173;SDS011;14031;50.158;8.626;2022-11-20T10:47:27;26.57;;;14.90;;
16173;SDS011;14031;50.158;8.626;2022-11-20T10:50:01;25.37;;;14.93;;
16173;SDS011;14031;50.158;8.626;2022-11-20T10:52:32;30.53;;;16.30;;
16173;SDS011;14031;50.158;8.626;2022-11-20T10:55:12;26.77;;;14.93;;
16173;SDS011;14031;50.158;8.626;2022-11-20T10:57:57;28.57;;;15.30;;
16173;SDS011;14031;50.158;8.626;2022-11-20T11:00:32;30.13;;;15.83;;
16173;SDS011;14031;50.158;8.626;2022-11-20T11:02:59;34.03;;;16.87;;
16173;SDS011;14031;50.158;8.626;2022-11-20T11:05:33;31.37;;;16.97;;
16173;SDS011;14031;50.158;8.626;2022-11-20T11:08:04;32.30;;;17.37;;
16173;SDS011;14031;50.158;8.626;2022-11-20T11:10:37;34.63;;;17.33;;
16173;SDS011;14031;50.158;8.626;2022-11-20T11:13:18;27.97;;;17.20;;
16173;SDS011;14031;50.158;8.626;2022-11-20T11:15:46;30.53;;;16.43;;
16173;SDS011;14031;50.158;8.626;2022-11-20T11:18:22;32.67;;;16.67;;
16173;SDS011;14031;50.158;8.626;2022-11-20T11:20:51;34.93;;;17.63;;
16173;SDS011;14031;50.158;8.626;2022-11-20T11:23:28;31.20;;;17.33;;
16173;SDS011;14031;50.158;8.626;2022-11-20T11:25:58;30.10;;;16.80;;
16173;SDS011;14031;50.158;8.626;2022-11-20T11:28:27;27.70;;;16.13;;
16173;SDS011;14031;50.158;8.626;2022-11-20T11:30:54;33.03;;;17.17;;
16173;SDS011;14031;50.158;8.626;2022-11-20T11:33:22;29.63;;;16.40;;
16173;SDS011;14031;50.158;8.626;2022-11-20T11:35:51;33.63;;;17.63;;
16173;SDS011;14031;50.158;8.626;2022-11-20T11:38:22;33.47;;;17.57;;
16173;SDS011;14031;50.158;8.626;2022-11-20T11:40:54;32.10;;;18.13;;
16173;SDS011;14031;50.158;8.626;2022-11-20T11:43:23;32.60;;;17.20;;
16173;SDS011;14031;50.158;8.626;2022-11-20T11:46:29;34.03;;;16.53;;
16173;SDS011;14031;50.158;8.626;2022-11-20T11:48:58;29.90;;;16.67;;
16173;SDS011;14031;50.158;8.626;2022-11-20T11:51:28;35.97;;;17.77;;
16173;SDS011;14031;50.158;8.626;2022-11-20T11:54:00;31.33;;;17.10;;
16173;SDS011;14031;50.158;8.626;2022-11-20T11:56:36;31.47;;;17.07;;
16173;SDS011;14031;50.158;8.626;2022-11-20T11:59:04;34.77;;;17.20;;
16173;SDS011;14031;50.158;8.626;2022-11-20T12:01:38;30.33;;;16.73;;
16173;SDS011;14031;50.158;8.626;2022-11-20T12:04:13;34.50;;;17.67;;
16173;SDS011;14031;50.158;8.626;2022-11-20T12:06:47;33.90;;;17.00;;
16173;SDS011;14031;50.158;8.626;2022-11-20T12:09:19;31.70;;;17.97;;
16173;SDS011;14031;50.158;8.626;2022-11-20T12:11:51;31.90;;;17.40;;
16173;SDS011;14031;50.158;8.626;2022-11-20T12:14:24;38.83;;;20.23;;
16173;SDS011;14031;50.158;8.626;2022-11-20T12:16:57;34.77;;;18.33;;
16173;SDS011;14031;50.158;8.626;2022-11-20T12:19:24;30.37;;;17.30;;
16173;SDS011;14031;50.158;8.626;2022-11-20T12:21:56;30.60;;;16.20;;
16173;SDS011;14031;50.158;8.626;2022-11-20T12:24:34;30.87;;;16.00;;
16173;SDS011;14031;50.158;8.626;2022-11-20T12:27:23;30.90;;;15.83;;
16173;SDS011;14031;50.158;8.626;2022-11-20T12:30:08;27.83;;;16.57;;
16173;SDS011;14031;50.158;8.626;2022-11-20T12:35:42;30.90;;;16.73;;
16173;SDS011;14031;50.158;8.626;2022-11-20T12:41:25;38.60;;;18.60;;
16173;SDS011;14031;50.158;8.626;2022-11-20T12:44:30;35.37;;;16.90;;
16173;SDS011;14031;50.158;8.626;2022-11-20T12:47:28;31.47;;;16.13;;
16173;SDS011;14031;50.158;8.626;2022-11-20T12:50:06;31.07;;;16.70;;
16173;SDS011;14031;50.158;8.626;2022-11-20T12:52:41;30.47;;;17.43;;
16173;SDS011;14031;50.158;8.626;2022-11-20T12:55:20;30.77;;;17.40;;
16173;SDS011;14031;50.158;8.626;2022-11-20T12:57:55;32.10;;;16.20;;
16173;SDS011;14031;50.158;8.626;2022-11-20T13:00:27;32.87;;;17.83;;
16173;SDS011;14031;50.158;8.626;2022-11-20T13:03:14;30.10;;;16.50;;
16173;SDS011;14031;50.158;8.626;2022-11-20T13:05:55;28.73;;;16.67;;
16173;SDS011;14031;50.158;8.626;2022-11-20T13:08:30;28.90;;;14.77;;
16173;SDS011;14031;50.158;8.626;2022-11-20T13:11:03;30.60;;;14.90;;
16173;SDS011;14031;50.158;8.626;2022-11-20T13:13:39;28.10;;;16.40;;
16173;SDS011;14031;50.158;8.626;2022-11-20T13:16:13;29.33;;;16.70;;
16173;SDS011;14031;50.158;8.626;2022-11-20T13:18:45;28.60;;;16.37;;
16173;SDS011;14031;50.158;8.626;2022-11-20T13:21:15;31.37;;;16.80;;
16173;SDS011;14031;50.158;8.626;2022-11-20T13:23:44;28.70;;;16.90;;
16173;SDS011;14031;50.158;8.626;2022-11-20T13:26:16;30.27;;;17.13;;
16173;SDS011;14031;50.158;8.626;2022-11-20T13:28:45;29.73;;;17.07;;
16173;SDS011;14031;50.158;8.626;2022-11-20T13:31:25;29.23;;;16.87;;
16173;SDS011;14031;50.158;8.626;2022-11-20T13:33:56;30.17;;;17.63;;
16173;SDS011;14031;50.158;8.626;2022-11-20T13:36:26;26.80;;;15.57;;
16173;SDS011;14031;50.158;8.626;2022-11-20T13:38:54;28.67;;;15.87;;
16173;SDS011;14031;50.158;8.626;2022-11-20T13:41:24;26.07;;;15.93;;
16173;SDS011;14031;50.158;8.626;2022-11-20T13:43:59;26.87;;;15.37;;
16173;SDS011;14031;50.158;8.626;2022-11-20T13:46:36;28.20;;;15.67;;
16173;SDS011;14031;50.158;8.626;2022-11-20T13:49:07;25.63;;;15.07;;
16173;SDS011;14031;50.158;8.626;2022-11-20T13:51:37;28.03;;;16.43;;
16173;SDS011;14031;50.158;8.626;2022-11-20T13:57:30;24.93;;;15.13;;
16173;SDS011;14031;50.158;8.626;2022-11-20T14:00:19;28.03;;;15.77;;
16173;SDS011;14031;50.158;8.626;2022-11-20T14:02:57;27.00;;;15.87;;
16173;SDS011;14031;50.158;8.626;2022-11-20T14:05:27;28.50;;;16.17;;
16173;SDS011;14031;50.158;8.626;2022-11-20T14:07:57;26.30;;;15.27;;
16173;SDS011;14031;50.158;8.626;2022-11-20T14:10:25;25.67;;;15.53;;
16173;SDS011;14031;50.158;8.626;2022-11-20T14:12:55;27.73;;;16.53;;
16173;SDS011;14031;50.158;8.626;2022-11-20T14:15:24;23.33;;;14.37;;
16173;SDS011;14031;50.158;8.626;2022-11-20T14:17:52;20.50;;;14.23;;
16173;SDS011;14031;50.158;8.626;2022-11-20T14:20:19;28.73;;;16.23;;
16173;SDS011;14031;50.158;8.626;2022-11-20T14:22:50;26.23;;;15.77;;
16173;SDS011;14031;50.158;8.626;2022-11-20T14:25:19;22.50;;;15.10;;
16173;SDS011;14031;50.158;8.626;2022-11-20T14:27:50;25.67;;;15.80;;
16173;SDS011;14031;50.158;8.626;2022-11-20T14:30:21;25.60;;;16.77;;
16173;SDS011;14031;50.158;8.626;2022-11-20T14:32:51;23.17;;;15.27;;
16173;SDS011;14031;50.158;8.626;2022-11-20T14:35:21;26.00;;;15.30;;
16173;SDS011;14031;50.158;8.626;2022-11-20T14:37:51;24.93;;;15.80;;
16173;SDS011;14031;50.158;8.626;2022-11-20T14:40:22;26.50;;;16.17;;
16173;SDS011;14031;50.158;8.626;2022-11-20T14:42:54;28.07;;;15.77;;
16173;SDS011;14031;50.158;8.626;2022-11-20T14:45:22;27.27;;;15.77;;
16173;SDS011;14031;50.158;8.626;2022-11-20T14:47:50;23.67;;;15.33;;